createdAt,value
2018-04-24T00:08:32.000Z,22.64
2018-04-24T00:18:32.000Z,22.6
2018-04-24T00:28:32.000Z,22.56
2018-04-24T00:38:32.000Z,22.52
2018-04-24T00:48:32.000Z,22.47
2018-04-24T00:58:32.000Z,22.43
2018-04-24T01:08:32.000Z,22.38
2018-04-24T01:18:32.000Z,22.34
2018-04-24T01:28:32.000Z,22.3
2018-04-24T01:38:32.000Z,22.23
2018-04-24T01:48:32.000Z,22.19
2018-04-24T01:58:32.000Z,22.15
2018-04-24T02:08:32.000Z,22.11
2018-04-24T02:18:32.000Z,22.05
2018-04-24T02:28:32.000Z,22.01
2018-04-24T02:38:32.000Z,21.97
2018-04-24T02:48:32.000Z,21.92
2018-04-24T02:58:32.000Z,21.88
2018-04-24T03:08:32.000Z,21.84
2018-04-24T03:18:32.000Z,21.8
2018-04-24T03:28:32.000Z,21.76
2018-04-24T03:38:32.000Z,21.73
2018-04-24T03:48:32.000Z,21.68
2018-04-24T03:58:32.000Z,21.65
2018-04-24T04:08:32.000Z,21.61
2018-04-24T04:18:32.000Z,21.58
2018-04-24T04:28:32.000Z,21.55
2018-04-24T04:38:32.000Z,21.52
2018-04-24T04:48:32.000Z,21.49
2018-04-24T04:58:32.000Z,21.46
2018-04-24T05:08:32.000Z,21.44
2018-04-24T05:18:32.000Z,21.42
2018-04-24T05:28:32.000Z,21.39
2018-04-24T05:38:32.000Z,21.36
2018-04-24T05:48:32.000Z,21.34
2018-04-24T05:58:32.000Z,21.33
2018-04-24T06:08:32.000Z,21.32
2018-04-24T06:18:32.000Z,21.3
2018-04-24T06:28:32.000Z,21.28
2018-04-24T06:38:32.000Z,21.29
2018-04-24T06:48:33.000Z,21.3
2018-04-24T06:58:33.000Z,21.32
2018-04-24T07:08:33.000Z,21.31
2018-04-24T07:18:33.000Z,21.31
2018-04-24T07:28:33.000Z,21.33
2018-04-24T07:38:33.000Z,21.35
2018-04-24T07:48:33.000Z,21.38
2018-04-24T07:58:33.000Z,21.4
2018-04-24T08:08:33.000Z,21.42
2018-04-24T08:18:33.000Z,21.42
2018-04-24T08:28:33.000Z,21.41
2018-04-24T08:38:33.000Z,21.41
2018-04-24T08:48:33.000Z,21.45
2018-04-24T08:58:33.000Z,21.46
2018-04-24T09:08:33.000Z,21.49
2018-04-24T09:18:33.000Z,21.53
2018-04-24T09:28:33.000Z,21.56
2018-04-24T09:38:33.000Z,21.64
2018-04-24T09:48:33.000Z,21.69
2018-04-24T09:58:33.000Z,21.68
2018-04-24T10:08:33.000Z,21.71
2018-04-24T10:18:33.000Z,21.72
2018-04-24T10:28:33.000Z,21.76
2018-04-24T10:38:33.000Z,21.8
2018-04-24T10:48:33.000Z,21.82
2018-04-24T10:58:33.000Z,21.88
2018-04-24T11:08:34.000Z,21.93
2018-04-24T11:18:33.000Z,21.98
2018-04-24T11:28:33.000Z,22
2018-04-24T11:38:33.000Z,22.04
2018-04-24T11:48:33.000Z,22.05
2018-04-24T11:58:33.000Z,22.05
2018-04-24T12:08:33.000Z,22.06
2018-04-24T12:18:33.000Z,22.09
2018-04-24T12:28:33.000Z,22.13
2018-04-24T12:38:33.000Z,22.17
2018-04-24T12:48:33.000Z,22.15
2018-04-24T13:08:33.000Z,22.12
2018-04-24T13:18:33.000Z,22.12
2018-04-24T13:28:33.000Z,22.11
2018-04-24T13:38:33.000Z,22.08
2018-04-24T14:08:33.000Z,22.05
2018-04-24T14:18:34.000Z,22.05
2018-04-24T14:28:35.000Z,22.06
2018-04-24T14:38:33.000Z,22.05
2018-04-24T14:48:33.000Z,22.08
2018-04-24T14:58:34.000Z,22.08
2018-04-24T15:08:34.000Z,22.09
2018-04-24T15:18:34.000Z,22.07
2018-04-24T15:28:34.000Z,22.1
2018-04-24T15:38:34.000Z,22.13
2018-04-24T15:48:34.000Z,22.17
2018-04-24T15:58:34.000Z,22.2
2018-04-24T16:08:34.000Z,22.2
2018-04-24T16:18:34.000Z,22.21
2018-04-24T16:28:34.000Z,22.17
2018-04-24T16:38:34.000Z,22.18
2018-04-24T16:48:34.000Z,22.16
2018-04-24T16:58:34.000Z,22.14
2018-04-24T17:08:34.000Z,22.12
2018-04-24T17:18:34.000Z,22.09
2018-04-24T17:28:34.000Z,22.05
2018-04-24T17:38:34.000Z,22.03
2018-04-24T17:48:34.000Z,22
2018-04-24T17:58:34.000Z,21.98
2018-04-24T18:08:34.000Z,21.95
2018-04-24T18:18:34.000Z,21.92
2018-04-24T18:28:34.000Z,21.9
2018-04-24T18:38:34.000Z,21.89
2018-04-24T18:48:34.000Z,21.86
2018-04-24T18:58:34.000Z,21.84
2018-04-24T19:08:34.000Z,21.81
2018-04-24T19:18:34.000Z,21.8
2018-04-24T19:28:34.000Z,21.78
2018-04-24T19:38:34.000Z,21.77
2018-04-24T19:48:34.000Z,21.75
2018-04-24T19:58:34.000Z,21.73
2018-04-24T20:08:34.000Z,21.72
2018-04-24T20:18:34.000Z,21.7
2018-04-24T20:28:34.000Z,21.67
2018-04-24T20:38:34.000Z,21.64
2018-04-24T20:48:34.000Z,21.59
2018-04-24T20:58:34.000Z,21.72
2018-04-24T21:08:34.000Z,21.69
2018-04-24T21:18:34.000Z,21.74
2018-04-24T21:28:34.000Z,21.7
2018-04-24T21:38:34.000Z,21.69
2018-04-24T21:48:34.000Z,21.66
2018-04-24T21:58:34.000Z,21.65
2018-04-24T22:08:34.000Z,21.62
2018-04-24T22:18:34.000Z,21.6
2018-04-24T22:28:34.000Z,21.57
2018-04-24T22:38:34.000Z,21.54
2018-04-24T22:48:34.000Z,21.52
2018-04-24T22:58:35.000Z,21.5
2018-04-24T23:08:34.000Z,21.48
2018-04-24T23:28:35.000Z,21.53
2018-04-24T23:38:34.000Z,21.47
2018-04-24T23:48:35.000Z,21.44
2018-04-24T23:58:35.000Z,21.42
